createdAt,value
2022-09-01T00:01:44.205Z,17.05
2022-09-01T00:04:13.566Z,17.02
2022-09-01T00:06:41.089Z,16.94
2022-09-01T00:09:15.105Z,17.09
2022-09-01T00:11:43.821Z,17.09
2022-09-01T00:14:30.322Z,17.03
2022-09-01T00:16:59.409Z,16.92
2022-09-01T00:19:26.379Z,17.01
2022-09-01T00:21:53.693Z,16.98
2022-09-01T00:24:20.322Z,16.92
2022-09-01T00:26:47.379Z,16.91
2022-09-01T00:29:14.554Z,16.86
2022-09-01T00:31:41.576Z,16.88
2022-09-01T00:34:08.306Z,16.90
2022-09-01T00:36:34.906Z,16.91
2022-09-01T00:39:04.477Z,16.86
2022-09-01T00:41:33.986Z,16.87
2022-09-01T00:44:05.469Z,16.82
2022-09-01T00:46:47.757Z,16.85
2022-09-01T00:49:22.118Z,16.79
2022-09-01T00:51:53.832Z,16.80
2022-09-01T00:54:27.409Z,16.76
2022-09-01T00:56:57.662Z,16.71
2022-09-01T00:59:26.832Z,16.70
2022-09-01T01:01:54.837Z,16.47
2022-09-01T01:04:21.498Z,16.62
2022-09-01T01:06:58.529Z,16.56
2022-09-01T01:09:29.212Z,16.56
2022-09-01T01:11:57.766Z,16.36
2022-09-01T01:14:24.327Z,16.31
2022-09-01T01:16:52.342Z,16.43
2022-09-01T01:19:53.502Z,16.25
2022-09-01T01:22:46.564Z,16.35
2022-09-01T01:25:13.631Z,16.30
2022-09-01T01:27:43.684Z,16.29
2022-09-01T01:30:12.686Z,16.11
2022-09-01T01:32:43.261Z,16.21
2022-09-01T01:35:14.973Z,16.15
2022-09-01T01:37:46.555Z,16.09
2022-09-01T01:40:17.039Z,16.06
2022-09-01T01:42:46.067Z,16.06
2022-09-01T01:45:17.383Z,15.94
2022-09-01T01:47:53.483Z,16.06
2022-09-01T01:50:25.285Z,16.06
2022-09-01T01:52:58.347Z,15.99
2022-09-01T01:55:28.743Z,15.82
2022-09-01T01:57:56.448Z,16.00
2022-09-01T02:00:30.547Z,15.95
2022-09-01T02:02:58.402Z,15.96
2022-09-01T02:05:32.297Z,15.95
2022-09-01T02:08:05.664Z,15.90
2022-09-01T02:10:35.887Z,15.87
2022-09-01T02:13:07.116Z,15.89
2022-09-01T02:15:40.023Z,15.89
2022-09-01T02:18:06.592Z,15.83
2022-09-01T02:20:33.182Z,15.71
2022-09-01T02:23:09.386Z,15.71
2022-09-01T02:25:49.304Z,15.76
2022-09-01T02:28:24.560Z,15.57
2022-09-01T02:30:55.195Z,15.58
2022-09-01T02:33:22.746Z,15.70
2022-09-01T02:35:53.948Z,15.69
2022-09-01T02:38:23.985Z,15.65
2022-09-01T02:40:50.663Z,15.65
2022-09-01T02:43:20.648Z,15.70
2022-09-01T02:45:52.932Z,15.64
2022-09-01T02:48:22.673Z,15.49
2022-09-01T02:50:49.722Z,15.62
2022-09-01T02:53:16.699Z,15.59
2022-09-01T02:55:43.720Z,15.48
2022-09-01T02:58:13.460Z,15.42
2022-09-01T03:00:41.660Z,15.36
2022-09-01T03:03:08.246Z,15.38
2022-09-01T03:05:36.157Z,15.51
2022-09-01T03:08:05.585Z,15.39
2022-09-01T03:10:37.978Z,15.51
2022-09-01T03:13:09.626Z,15.40
2022-09-01T03:15:37.289Z,15.44
2022-09-01T03:18:05.666Z,15.38
2022-09-01T03:20:34.317Z,15.34
2022-09-01T03:23:01.652Z,15.34
2022-09-01T03:25:29.858Z,15.25
2022-09-01T03:28:03.044Z,15.24
2022-09-01T03:30:32.777Z,15.23
2022-09-01T03:33:00.863Z,15.20
2022-09-01T03:35:28.571Z,15.17
2022-09-01T03:37:59.112Z,15.11
2022-09-01T03:40:27.956Z,15.08
2022-09-01T03:42:55.746Z,15.06
2022-09-01T03:45:25.687Z,15.00
2022-09-01T03:47:54.451Z,14.99
2022-09-01T03:50:25.162Z,14.96
2022-09-01T03:52:54.353Z,14.99
2022-09-01T03:55:25.600Z,14.97
2022-09-01T03:57:57.661Z,14.88
2022-09-01T04:00:30.012Z,14.97
2022-09-01T04:02:59.255Z,14.98
2022-09-01T04:05:28.844Z,14.99
2022-09-01T04:08:02.664Z,15.03
2022-09-01T04:10:32.565Z,14.94
2022-09-01T04:13:02.853Z,15.00
2022-09-01T04:15:29.705Z,14.98
2022-09-01T04:18:09.007Z,15.01
2022-09-01T04:20:48.365Z,14.92
2022-09-01T04:23:26.638Z,14.96
2022-09-01T04:25:57.038Z,14.97
2022-09-01T04:28:31.088Z,14.97
2022-09-01T04:30:58.581Z,14.83
2022-09-01T04:33:27.596Z,14.92
2022-09-01T04:35:56.908Z,14.80
2022-09-01T04:38:24.933Z,14.97
2022-09-01T04:40:52.556Z,14.96
2022-09-01T04:43:19.348Z,14.95
2022-09-01T04:45:46.797Z,14.95
2022-09-01T04:48:13.413Z,14.93
2022-09-01T04:50:41.045Z,14.95
2022-09-01T04:53:11.995Z,14.74
2022-09-01T04:55:41.267Z,14.94
2022-09-01T04:58:10.206Z,14.92
2022-09-01T05:00:37.040Z,14.95
2022-09-01T05:03:04.822Z,14.95
2022-09-01T05:05:44.358Z,14.98
2022-09-01T05:08:23.203Z,15.00
2022-09-01T05:10:55.715Z,14.91
2022-09-01T05:13:23.631Z,15.00
2022-09-01T05:16:02.073Z,15.04
2022-09-01T05:18:29.362Z,15.06
2022-09-01T05:20:57.493Z,15.15
2022-09-01T05:23:26.492Z,15.17
2022-09-01T05:25:55.281Z,15.25
2022-09-01T05:28:27.127Z,15.31
2022-09-01T05:30:54.390Z,15.39
2022-09-01T05:33:22.099Z,15.51
2022-09-01T05:36:01.298Z,15.60
2022-09-01T05:38:31.625Z,15.73
2022-09-01T05:41:04.135Z,15.83
2022-09-01T05:43:32.512Z,15.85
2022-09-01T05:46:07.035Z,15.96
2022-09-01T05:48:36.249Z,15.88
2022-09-01T05:51:17.689Z,16.08
2022-09-01T05:53:58.851Z,16.15
2022-09-01T05:56:27.672Z,16.13
2022-09-01T06:01:43.873Z,16.26
2022-09-01T06:04:13.785Z,16.23
2022-09-01T06:07:05.567Z,16.16
2022-09-01T06:09:33.808Z,16.14
2022-09-01T06:12:01.939Z,16.05
2022-09-01T06:14:28.610Z,16.04
2022-09-01T06:16:56.540Z,16.12
2022-09-01T06:19:23.193Z,16.11
2022-09-01T06:21:50.080Z,16.04
2022-09-01T06:24:17.981Z,16.18
2022-09-01T06:26:46.452Z,16.31
2022-09-01T06:29:15.485Z,16.31
2022-09-01T06:31:43.372Z,16.31
2022-09-01T06:34:17.664Z,16.39
2022-09-01T06:36:46.046Z,16.47
2022-09-01T06:39:19.891Z,16.51
2022-09-01T06:41:53.380Z,16.60
2022-09-01T06:44:23.298Z,16.73
2022-09-01T06:46:51.708Z,16.71
2022-09-01T06:49:23.612Z,16.91
2022-09-01T06:51:52.738Z,17.09
2022-09-01T06:54:21.151Z,17.26
2022-09-01T06:56:51.854Z,17.43
2022-09-01T06:59:20.980Z,17.43
2022-09-01T07:01:49.359Z,17.66
2022-09-01T07:04:20.309Z,17.80
2022-09-01T07:12:30.195Z,18.20
2022-09-01T07:17:52.513Z,18.37
2022-09-01T07:20:29.358Z,18.57
2022-09-01T07:23:06.488Z,18.91
2022-09-01T07:28:39.858Z,19.14
2022-09-01T07:34:37.669Z,19.18
2022-09-01T07:39:48.741Z,19.29
2022-09-01T07:42:30.103Z,18.09
2022-09-01T07:45:27.588Z,19.37
2022-09-01T07:47:55.401Z,19.46
2022-09-01T07:50:39.778Z,19.48
2022-09-01T07:53:09.232Z,19.37
2022-09-01T07:55:40.375Z,19.63
2022-09-01T07:58:06.914Z,19.79
2022-09-01T08:00:34.361Z,19.95
2022-09-01T08:03:01.433Z,19.96
2022-09-01T08:05:28.964Z,20.27
2022-09-01T08:07:55.625Z,20.30
2022-09-01T08:10:22.815Z,20.37
2022-09-01T08:12:57.346Z,20.72
2022-09-01T08:16:06.477Z,21.20
2022-09-01T08:18:14.464Z,21.07
2022-09-01T08:20:47.282Z,21.25
2022-09-01T08:23:18.506Z,21.13
2022-09-01T08:25:47.427Z,21.12
2022-09-01T08:28:15.246Z,21.07
2022-09-01T08:30:49.125Z,20.97
2022-09-01T08:33:19.476Z,20.57
2022-09-01T08:35:49.023Z,20.65
2022-09-01T08:38:15.819Z,20.55
2022-09-01T08:40:56.402Z,20.56
2022-09-01T08:43:57.919Z,20.65
2022-09-01T08:46:31.599Z,20.80
2022-09-01T08:52:20.756Z,21.01
2022-09-01T08:54:50.121Z,20.91
2022-09-01T08:57:40.730Z,20.65
2022-09-01T09:00:13.984Z,21.04
2022-09-01T09:02:57.079Z,21.26
2022-09-01T09:05:50.857Z,21.67
2022-09-01T09:08:35.383Z,21.76
2022-09-01T09:11:06.592Z,21.65
2022-09-01T09:13:58.891Z,21.71
2022-09-01T09:16:31.233Z,21.87
2022-09-01T09:19:04.222Z,21.80
2022-09-01T09:21:37.465Z,21.82
2022-09-01T09:24:22.640Z,21.82
2022-09-01T09:26:56.182Z,21.63
2022-09-01T09:29:23.361Z,21.31
2022-09-01T09:32:02.503Z,21.40
2022-09-01T09:34:41.229Z,21.40
2022-09-01T09:37:30.227Z,21.33
2022-09-01T09:40:15.221Z,21.39
2022-09-01T09:43:04.680Z,21.44
2022-09-01T09:45:35.882Z,21.63
2022-09-01T09:48:26.197Z,21.78
2022-09-01T09:50:52.898Z,21.76
2022-09-01T09:53:30.134Z,21.87
2022-09-01T09:56:04.418Z,21.80
2022-09-01T09:58:50.059Z,21.85
2022-09-01T10:01:38.916Z,22.00
2022-09-01T10:04:06.355Z,22.05
2022-09-01T10:06:42.041Z,21.94
2022-09-01T10:09:16.026Z,22.17
2022-09-01T10:11:45.417Z,22.25
2022-09-01T10:14:51.784Z,22.27
2022-09-01T10:17:13.395Z,22.57
2022-09-01T10:19:51.025Z,22.75
2022-09-01T10:22:17.905Z,22.84
2022-09-01T10:24:45.892Z,22.88
2022-09-01T10:27:23.660Z,22.90
2022-09-01T10:32:57.496Z,23.11
2022-09-01T10:35:34.712Z,23.12
2022-09-01T10:38:12.224Z,23.25
2022-09-01T10:40:43.664Z,23.44
2022-09-01T10:43:38.583Z,23.60
2022-09-01T10:46:38.781Z,23.58
2022-09-01T10:49:33.647Z,23.36
2022-09-01T10:52:11.318Z,23.18
2022-09-01T10:54:50.835Z,23.21
2022-09-01T10:57:30.630Z,23.42
2022-09-01T11:00:40.393Z,23.60
2022-09-01T11:06:13.122Z,24.08
2022-09-01T11:08:46.732Z,24.06
2022-09-01T11:11:47.493Z,24.09
2022-09-01T11:14:22.856Z,23.94
2022-09-01T11:17:14.421Z,23.89
2022-09-01T11:20:06.433Z,23.90
2022-09-01T11:22:43.326Z,24.15
2022-09-01T11:25:38.705Z,24.30
2022-09-01T11:28:31.806Z,24.51
2022-09-01T11:31:08.408Z,24.75
2022-09-01T11:33:44.236Z,24.83
2022-09-01T11:36:36.670Z,24.63
2022-09-01T11:39:19.059Z,24.53
2022-09-01T11:41:59.704Z,24.65
2022-09-01T11:44:33.931Z,24.70
2022-09-01T11:47:10.788Z,24.45
2022-09-01T11:49:49.161Z,24.54
2022-09-01T11:52:18.532Z,24.75
2022-09-01T11:54:48.439Z,24.72
2022-09-01T11:57:38.762Z,25.04
2022-09-01T12:00:12.987Z,24.92
2022-09-01T12:02:51.582Z,24.83
2022-09-01T12:05:32.021Z,24.83
2022-09-01T12:08:00.515Z,24.91
2022-09-01T12:10:27.491Z,25.17
2022-09-01T12:13:18.746Z,25.43
2022-09-01T12:16:17.069Z,25.62
2022-09-01T12:18:48.371Z,25.80
2022-09-01T12:21:22.939Z,25.50
2022-09-01T12:23:49.831Z,25.28
2022-09-01T12:26:23.563Z,25.12
2022-09-01T12:28:51.000Z,25.27
2022-09-01T12:31:32.626Z,25.55
2022-09-01T12:33:59.395Z,25.60
2022-09-01T12:36:33.378Z,25.59
2022-09-01T12:39:25.596Z,25.54
2022-09-01T12:42:06.555Z,25.43
2022-09-01T12:44:47.979Z,25.43
2022-09-01T12:47:37.804Z,25.42
2022-09-01T12:50:29.718Z,25.15
2022-09-01T12:53:01.830Z,25.00
2022-09-01T12:55:53.616Z,24.86
2022-09-01T12:58:24.038Z,24.66
2022-09-01T13:01:01.766Z,24.69
2022-09-01T13:03:29.677Z,24.90
2022-09-01T13:05:59.912Z,24.87
2022-09-01T13:08:30.965Z,24.82
2022-09-01T13:11:07.412Z,24.77
2022-09-01T13:13:37.463Z,24.71
2022-09-01T13:16:08.581Z,24.66
2022-09-01T13:19:10.569Z,25.06
2022-09-01T13:21:21.885Z,25.52
2022-09-01T13:23:51.261Z,25.71
2022-09-01T13:26:17.868Z,25.77
2022-09-01T13:28:46.011Z,25.55
2022-09-01T13:31:30.251Z,25.52
2022-09-01T13:34:22.287Z,25.30
2022-09-01T13:36:50.848Z,25.33
2022-09-01T13:39:20.261Z,25.39
2022-09-01T13:41:47.584Z,25.34
2022-09-01T13:44:14.701Z,25.29
2022-09-01T13:50:05.105Z,25.30
2022-09-01T13:52:15.027Z,25.69
2022-09-01T13:54:44.390Z,26.02
2022-09-01T13:57:11.725Z,26.30
2022-09-01T13:59:39.147Z,26.46
2022-09-01T14:02:06.252Z,26.74
2022-09-01T14:04:33.053Z,26.79
2022-09-01T14:06:59.832Z,27.01
2022-09-01T14:09:26.591Z,27.11
2022-09-01T14:11:54.515Z,27.14
2022-09-01T14:14:22.036Z,26.97
2022-09-01T14:16:49.435Z,26.96
2022-09-01T14:19:16.079Z,26.82
2022-09-01T14:21:43.011Z,26.92
2022-09-01T14:24:09.661Z,26.85
2022-09-01T14:26:36.292Z,26.72
2022-09-01T14:29:02.924Z,26.30
2022-09-01T14:31:30.273Z,26.02
2022-09-01T14:33:57.126Z,25.93
2022-09-01T14:36:25.595Z,25.70
2022-09-01T14:38:53.454Z,25.70
2022-09-01T14:41:23.953Z,25.56
2022-09-01T14:43:55.071Z,25.41
2022-09-01T14:46:23.652Z,25.39
2022-09-01T14:48:50.868Z,25.33
2022-09-01T14:52:09.747Z,25.29
2022-09-01T14:54:13.561Z,25.36
2022-09-01T14:56:41.931Z,25.35
2022-09-01T14:59:08.908Z,25.33
2022-09-01T15:01:35.732Z,25.17
2022-09-01T15:04:02.749Z,25.11
2022-09-01T15:06:29.355Z,25.01
2022-09-01T15:08:55.981Z,24.76
2022-09-01T15:11:22.649Z,24.79
2022-09-01T15:13:52.208Z,24.60
2022-09-01T15:16:23.735Z,24.61
2022-09-01T15:18:51.313Z,24.47
2022-09-01T15:21:30.721Z,24.44
2022-09-01T15:23:57.727Z,24.45
2022-09-01T15:26:24.405Z,24.51
2022-09-01T15:28:51.228Z,24.54
2022-09-01T15:31:19.896Z,24.52
2022-09-01T15:34:01.332Z,24.65
2022-09-01T15:36:29.304Z,24.65
2022-09-01T15:38:57.076Z,24.78
2022-09-01T15:41:26.938Z,24.82
2022-09-01T15:43:53.727Z,24.80
2022-09-01T15:46:21.293Z,24.92
2022-09-01T15:48:48.231Z,24.92
2022-09-01T15:51:23.905Z,25.07
2022-09-01T15:53:52.305Z,25.11
2022-09-01T15:56:18.925Z,25.04
2022-09-01T15:59:00.825Z,25.02
2022-09-01T16:01:29.353Z,24.97
2022-09-01T16:03:56.881Z,24.79
2022-09-01T16:06:23.703Z,24.86
2022-09-01T16:08:51.382Z,24.87
2022-09-01T16:11:17.998Z,25.05
2022-09-01T16:13:44.589Z,25.07
2022-09-01T16:16:48.870Z,25.04
2022-09-01T16:19:37.133Z,24.92
2022-09-01T16:22:29.810Z,25.03
2022-09-01T16:25:01.896Z,25.01
2022-09-01T16:27:33.634Z,24.97
2022-09-01T16:30:27.255Z,24.92
2022-09-01T16:32:56.797Z,24.90
2022-09-01T16:35:35.929Z,24.74
2022-09-01T16:38:33.908Z,24.83
2022-09-01T16:41:16.414Z,24.85
2022-09-01T16:44:15.802Z,24.85
2022-09-01T16:47:14.423Z,24.74
2022-09-01T16:50:05.264Z,24.65
2022-09-01T16:52:53.766Z,24.84
2022-09-01T16:55:55.973Z,24.82
2022-09-01T16:58:44.552Z,24.68
2022-09-01T17:01:30.260Z,24.70
2022-09-01T17:04:02.153Z,24.63
2022-09-01T17:06:45.637Z,24.59
2022-09-01T17:09:25.563Z,24.55
2022-09-01T17:11:58.033Z,24.53
2022-09-01T17:14:37.170Z,24.45
2022-09-01T17:17:19.845Z,24.31
2022-09-01T17:19:52.090Z,24.29
2022-09-01T17:22:22.896Z,24.15
2022-09-01T17:24:56.804Z,24.22
2022-09-01T17:27:51.709Z,24.13
2022-09-01T17:30:18.912Z,24.07
2022-09-01T17:33:17.603Z,23.99
2022-09-01T17:36:33.481Z,23.92
2022-09-01T17:39:15.945Z,23.75
2022-09-01T17:41:52.771Z,23.79
2022-09-01T17:44:30.821Z,23.70
2022-09-01T17:47:16.030Z,23.63
2022-09-01T17:49:45.398Z,23.55
2022-09-01T17:52:52.728Z,23.49
2022-09-01T17:55:25.748Z,23.43
2022-09-01T17:58:20.886Z,23.28
2022-09-01T18:01:09.966Z,23.30
2022-09-01T18:03:52.136Z,23.20
2022-09-01T18:06:41.850Z,23.06
2022-09-01T18:09:12.048Z,23.00
2022-09-01T18:11:51.745Z,22.99
2022-09-01T18:14:24.201Z,22.90
2022-09-01T18:17:15.051Z,22.80
2022-09-01T18:19:45.588Z,22.73
2022-09-01T18:22:21.511Z,22.62
2022-09-01T18:24:52.212Z,22.52
2022-09-01T18:27:18.872Z,22.40
2022-09-01T18:29:51.611Z,22.34
2022-09-01T18:32:43.456Z,22.36
2022-09-01T18:35:13.328Z,22.33
2022-09-01T18:37:42.830Z,22.29
2022-09-01T18:40:21.413Z,22.23
2022-09-01T18:43:16.722Z,22.18
2022-09-01T18:45:57.725Z,22.09
2022-09-01T18:49:01.888Z,22.09
2022-09-01T18:51:57.125Z,22.00
2022-09-01T18:54:38.522Z,21.88
2022-09-01T18:57:07.246Z,21.74
2022-09-01T18:59:52.983Z,21.79
2022-09-01T19:02:44.943Z,21.76
2022-09-01T19:05:19.876Z,21.71
2022-09-01T19:08:00.135Z,21.63
2022-09-01T19:10:34.938Z,21.49
2022-09-01T19:13:13.762Z,21.50
2022-09-01T19:15:42.902Z,21.45
2022-09-01T19:18:18.356Z,21.30
2022-09-01T19:21:17.016Z,21.38
2022-09-01T19:23:59.302Z,21.20
2022-09-01T19:26:27.326Z,21.28
2022-09-01T19:29:00.110Z,21.10
2022-09-01T19:31:28.241Z,21.17
2022-09-01T19:33:59.050Z,21.12
2022-09-01T19:36:39.304Z,21.08
2022-09-01T19:39:09.537Z,21.05
2022-09-01T19:41:43.303Z,20.79
2022-09-01T19:44:19.773Z,20.94
2022-09-01T19:46:52.135Z,20.89
2022-09-01T19:49:43.796Z,20.63
2022-09-01T19:52:34.473Z,20.75
2022-09-01T19:55:06.231Z,20.70
2022-09-01T19:57:40.072Z,20.67
2022-09-01T20:00:18.148Z,20.65
2022-09-01T20:03:12.581Z,20.63
2022-09-01T20:05:50.319Z,20.60
2022-09-01T20:08:33.523Z,20.48
2022-09-01T20:11:39.686Z,20.55
2022-09-01T20:14:33.785Z,20.50
2022-09-01T20:17:04.426Z,20.46
2022-09-01T20:19:39.620Z,20.43
2022-09-01T20:22:35.400Z,20.41
2022-09-01T20:25:10.623Z,20.25
2022-09-01T20:27:43.666Z,20.38
2022-09-01T20:30:12.290Z,20.42
2022-09-01T20:32:38.777Z,20.42
2022-09-01T20:35:15.786Z,20.40
2022-09-01T20:37:56.634Z,20.27
2022-09-01T20:40:41.194Z,20.40
2022-09-01T20:43:14.113Z,20.39
2022-09-01T20:45:40.993Z,20.30
2022-09-01T20:48:19.002Z,20.35
2022-09-01T20:50:56.658Z,20.38
2022-09-01T20:54:03.133Z,20.29
2022-09-01T20:56:47.685Z,20.38
2022-09-01T20:59:41.999Z,20.37
2022-09-01T21:02:46.095Z,20.39
2022-09-01T21:05:26.292Z,20.38
2022-09-01T21:08:14.104Z,20.39
2022-09-01T21:11:17.488Z,20.41
2022-09-01T21:14:31.501Z,20.38
2022-09-01T21:16:58.257Z,20.37
2022-09-01T21:20:08.467Z,20.36
2022-09-01T21:22:35.368Z,20.35
2022-09-01T21:25:02.191Z,20.31
2022-09-01T21:27:36.921Z,20.25
2022-09-01T21:30:07.542Z,20.29
2022-09-01T21:32:35.054Z,20.26
2022-09-01T21:35:02.869Z,20.22
2022-09-01T21:37:30.079Z,20.19
2022-09-01T21:39:58.222Z,20.14
2022-09-01T21:42:30.462Z,20.10
2022-09-01T21:44:58.469Z,20.10
2022-09-01T21:47:26.561Z,20.09
2022-09-01T21:49:53.126Z,20.06
2022-09-01T21:52:19.684Z,20.05
2022-09-01T21:54:46.251Z,19.98
2022-09-01T21:57:12.988Z,19.83
2022-09-01T21:59:39.572Z,19.87
2022-09-01T22:02:09.186Z,19.84
2022-09-01T22:04:37.586Z,19.82
2022-09-01T22:07:06.275Z,19.80
2022-09-01T22:09:32.883Z,19.65
2022-09-01T22:11:59.426Z,19.72
2022-09-01T22:14:27.804Z,19.66
2022-09-01T22:16:54.520Z,19.49
2022-09-01T22:19:21.366Z,19.47
2022-09-01T22:21:48.097Z,19.57
2022-09-01T22:24:19.097Z,19.53
2022-09-01T22:26:47.789Z,19.47
2022-09-01T22:29:15.629Z,19.35
2022-09-01T22:31:42.121Z,19.40
2022-09-01T22:34:08.712Z,19.19
2022-09-01T22:36:42.413Z,19.29
2022-09-01T22:39:11.169Z,19.20
2022-09-01T22:41:39.549Z,19.09
2022-09-01T22:44:07.345Z,19.17
2022-09-01T22:46:35.628Z,19.01
2022-09-01T22:49:02.841Z,19.12
2022-09-01T22:51:30.160Z,18.97
2022-09-01T22:53:56.680Z,18.89
2022-09-01T22:56:32.201Z,18.96
2022-09-01T22:59:02.645Z,18.81
2022-09-01T23:01:31.643Z,18.91
2022-09-01T23:04:01.734Z,18.86
2022-09-01T23:06:29.832Z,18.83
2022-09-01T23:08:57.847Z,18.73
2022-09-01T23:11:25.411Z,18.65
2022-09-01T23:13:52.689Z,18.69
2022-09-01T23:16:20.718Z,18.64
2022-09-01T23:18:49.474Z,18.65
2022-09-01T23:21:19.911Z,18.59
2022-09-01T23:23:46.562Z,18.55
2022-09-01T23:26:14.494Z,18.52
2022-09-01T23:28:42.441Z,18.46
2022-09-01T23:31:19.085Z,18.48
2022-09-01T23:33:45.984Z,18.44
2022-09-01T23:36:14.751Z,18.37
2022-09-01T23:38:41.780Z,18.34
2022-09-01T23:41:15.887Z,18.31
2022-09-01T23:43:42.674Z,18.19
2022-09-01T23:46:17.615Z,18.20
2022-09-01T23:48:44.252Z,18.10
2022-09-01T23:51:11.457Z,18.10
2022-09-01T23:53:38.931Z,18.06
2022-09-01T23:56:14.942Z,18.03
2022-09-01T23:58:42.129Z,17.98
